Wetterstation Vordersexau
Wetterdaten: Woche 31.07.17 - 06.08.17 (KW31)
Datum Zeit Temp. A. Feuchte A. Luftdruck Regen Wind Richtung Taupunkt Windchill Windben
31.07.2017 00:00 17,9 C 81 % 1011,9 hPa 0,0 l/m 0,0 km/h NO 14,6 C 17,9 C 0,0 km/h
31.07.2017 01:00 17,8 C 80 % 1011,8 hPa 0,0 l/m 0,0 km/h O-SO 14,3 C 17,8 C 0,0 km/h
31.07.2017 02:00 17,8 C 79 % 1012,4 hPa 0,0 l/m 0,0 km/h O 14,1 C 17,8 C 0,0 km/h
31.07.2017 03:00 17,0 C 79 % 1011,9 hPa 0,0 l/m 0,0 km/h SO 13,3 C 17,0 C 0,0 km/h
31.07.2017 04:00 16,2 C 79 % 1012,4 hPa 0,0 l/m 0,0 km/h SO 12,6 C 16,2 C 0,0 km/h
31.07.2017 05:00 15,9 C 78 % 1012,1 hPa 0,0 l/m 0,0 km/h SO 12,1 C 15,9 C 0,0 km/h
31.07.2017 06:00 16,6 C 74 % 1012,4 hPa 0,0 l/m 0,0 km/h O-SO 11,9 C 16,6 C 0,0 km/h
31.07.2017 07:00 18,3 C 69 % 1013,3 hPa 0,0 l/m 0,0 km/h SO 12,5 C 18,3 C 0,0 km/h
31.07.2017 08:00 23,2 C 81 % 1012,9 hPa 0,0 l/m 0,0 km/h SO 19,8 C 23,2 C 0,0 km/h
31.07.2017 09:00 23,8 C 76 % 1012,5 hPa 0,0 l/m 0,0 km/h W-SW 19,3 C 23,8 C 0,0 km/h
31.07.2017 10:00 28,3 C 66 % 1013,1 hPa 0,0 l/m 0,0 km/h W 21,3 C 28,3 C 0,0 km/h
31.07.2017 11:00 28,8 C 60 % 1012,5 hPa 0,0 l/m 0,0 km/h SO 20,2 C 28,8 C 0,0 km/h
31.07.2017 12:00 31,8 C 54 % 1012,4 hPa 0,0 l/m 0,0 km/h SO 21,3 C 31,8 C 0,0 km/h
31.07.2017 13:00 32,5 C 46 % 1012,5 hPa 0,0 l/m 3,2 km/h NO 19,4 C 32,5 C 1,8 km/h
31.07.2017 14:00 32,8 C 44 % 1011,8 hPa 0,0 l/m 0,0 km/h W-SW 18,9 C 32,8 C 0,0 km/h
31.07.2017 15:00 31,1 C 49 % 1011,4 hPa 0,0 l/m 0,0 km/h SO 19,1 C 31,1 C 0,0 km/h
31.07.2017 16:00 35,4 C 38 % 1010,8 hPa 0,0 l/m 0,0 km/h N 18,9 C 35,4 C 0,0 km/h
31.07.2017 17:00 35,9 C 37 % 1010,1 hPa 0,0 l/m 0,0 km/h N-NW 18,9 C 35,9 C 0,0 km/h
31.07.2017 18:00 34,9 C 40 % 1010,0 hPa 0,0 l/m 0,0 km/h W 19,3 C 34,9 C 0,0 km/h
31.07.2017 19:00 28,5 C 63 % 1009,6 hPa 0,0 l/m 0,0 km/h W 20,8 C 28,5 C 0,0 km/h
31.07.2017 20:00 24,5 C 76 % 1010,1 hPa 0,0 l/m 0,0 km/h S 20,0 C 24,5 C 0,0 km/h
31.07.2017 21:00 22,4 C 80 % 1010,6 hPa 0,0 l/m 0,0 km/h N-NO 18,8 C 22,4 C 0,0 km/h
31.07.2017 22:00 21,6 C 81 % 1010,1 hPa 0,0 l/m 0,0 km/h O 18,2 C 21,6 C 0,0 km/h
31.07.2017 23:00 19,4 C 82 % 1010,4 hPa 0,0 l/m 0,0 km/h O 16,2 C 19,4 C 0,0 km/h
01.08.2017 00:00 18,8 C 82 % 1009,6 hPa 0,0 l/m 0,0 km/h O 15,7 C 18,8 C 0,0 km/h
01.08.2017 01:00 18,4 C 81 % 1010,1 hPa 0,0 l/m 0,0 km/h W-NW 15,1 C 18,4 C 0,0 km/h
01.08.2017 02:00 17,5 C 80 % 1010,9 hPa 0,0 l/m 0,0 km/h O-NO 14,0 C 17,5 C 0,0 km/h
01.08.2017 03:00 17,8 C 79 % 1011,2 hPa 0,0 l/m 0,0 km/h S-SO 14,1 C 17,8 C 0,0 km/h
01.08.2017 04:00 17,3 C 78 % 1011,9 hPa 0,0 l/m 0,0 km/h S-SO 13,4 C 17,3 C 0,0 km/h
01.08.2017 05:00 16,6 C 79 % 1012,1 hPa 0,0 l/m 0,0 km/h SO 12,9 C 16,6 C 0,0 km/h
01.08.2017 06:00 17,2 C 78 % 1012,4 hPa 0,0 l/m 0,0 km/h SO 13,3 C 17,2 C 0,0 km/h
01.08.2017 07:00 20,9 C 69 % 1012,3 hPa 0,0 l/m 0,0 km/h N-NW 15,0 C 20,9 C 0,0 km/h
01.08.2017 08:00 26,1 C 69 % 1012,8 hPa 0,0 l/m 0,0 km/h W 20,0 C 26,1 C 0,0 km/h
01.08.2017 09:00 28,6 C 63 % 1012,9 hPa 0,0 l/m 0,0 km/h W-SW 20,8 C 28,6 C 0,0 km/h
01.08.2017 10:00 30,1 C 61 % 1012,4 hPa 0,0 l/m 0,0 km/h NW 21,7 C 30,1 C 0,0 km/h
01.08.2017 11:00 27,8 C 66 % 1011,8 hPa 0,0 l/m 0,0 km/h N 20,8 C 27,8 C 0,0 km/h
01.08.2017 12:00 29,9 C 62 % 1012,8 hPa 0,0 l/m 0,0 km/h SW 21,8 C 29,9 C 0,0 km/h
01.08.2017 13:00 31,7 C 59 % 1012,6 hPa 0,0 l/m 0,0 km/h W-NW 22,7 C 31,7 C 0,0 km/h
01.08.2017 14:00 33,9 C 54 % 1012,0 hPa 0,0 l/m 0,0 km/h N-NW 23,3 C 33,9 C 0,0 km/h
01.08.2017 15:00 28,8 C 64 % 1013,0 hPa 0,0 l/m 0,0 km/h N-NO 21,3 C 28,8 C 0,0 km/h
01.08.2017 16:00 26,4 C 70 % 1012,7 hPa 0,0 l/m 0,0 km/h N-NO 20,5 C 26,4 C 0,0 km/h
01.08.2017 17:00 29,6 C 63 % 1012,4 hPa 0,0 l/m 0,0 km/h N-NO 21,8 C 29,6 C 0,0 km/h
01.08.2017 18:00 26,4 C 66 % 1012,8 hPa 0,0 l/m 0,0 km/h W 19,5 C 26,4 C 0,0 km/h
01.08.2017 19:00 23,9 C 75 % 1012,5 hPa 0,0 l/m 0,0 km/h SO 19,2 C 23,9 C 0,0 km/h
01.08.2017 20:00 20,9 C 82 % 1014,5 hPa 3,1 l/m 0,0 km/h S 17,7 C 20,9 C 0,0 km/h
01.08.2017 21:00 20,6 C 80 % 1014,7 hPa 0,0 l/m 0,0 km/h O-SO 17,0 C 20,6 C 0,0 km/h
01.08.2017 22:00 20,6 C 78 % 1014,9 hPa 0,0 l/m 0,0 km/h O-SO 16,6 C 20,6 C 0,0 km/h
01.08.2017 23:00 20,0 C 76 % 1014,7 hPa 3,1 l/m 0,0 km/h W 15,6 C 20,0 C 0,0 km/h
02.08.2017 00:00 19,9 C 68 % 1016,7 hPa 1,6 l/m 0,0 km/h SO 13,8 C 19,9 C 0,0 km/h
02.08.2017 01:00 19,9 C 69 % 1016,5 hPa 2,1 l/m 3,9 km/h SO 14,0 C 19,9 C 2,2 km/h
02.08.2017 02:00 19,0 C 70 % 1015,7 hPa 0,5 l/m 0,0 km/h SO 13,4 C 19,0 C 0,0 km/h
02.08.2017 03:00 18,3 C 72 % 1016,0 hPa 0,0 l/m 0,0 km/h O-NO 13,2 C 18,3 C 0,0 km/h
02.08.2017 04:00 17,9 C 70 % 1016,1 hPa 0,0 l/m 0,0 km/h O-SO 12,3 C 17,9 C 0,0 km/h
02.08.2017 05:00 17,8 C 69 % 1016,5 hPa 0,0 l/m 0,0 km/h O-NO 12,0 C 17,8 C 0,0 km/h
02.08.2017 06:00 18,3 C 67 % 1016,3 hPa 0,0 l/m 0,0 km/h N-NO 12,1 C 18,3 C 0,0 km/h
02.08.2017 07:00 19,1 C 66 % 1016,8 hPa 0,0 l/m 0,0 km/h W 12,6 C 19,1 C 0,0 km/h
02.08.2017 08:00 22,1 C 81 % 1017,1 hPa 0,0 l/m 0,0 km/h W-NW 18,7 C 22,1 C 0,0 km/h
02.08.2017 09:00 22,3 C 83 % 1017,5 hPa 0,0 l/m 0,0 km/h W-NW 19,3 C 22,3 C 0,0 km/h
02.08.2017 10:00 26,8 C 75 % 1017,6 hPa 0,0 l/m 0,0 km/h W 22,0 C 26,8 C 0,0 km/h
02.08.2017 11:00 29,6 C 63 % 1017,2 hPa 0,0 l/m 0,0 km/h SW 21,8 C 29,6 C 0,0 km/h
02.08.2017 12:00 30,1 C 62 % 1017,1 hPa 0,0 l/m 7,8 km/h W 22,0 C 30,0 C 4,3 km/h
02.08.2017 13:00 32,2 C 55 % 1016,5 hPa 0,0 l/m 0,0 km/h W 22,0 C 32,2 C 0,0 km/h
02.08.2017 14:00 33,3 C 51 % 1016,3 hPa 0,0 l/m 6,5 km/h S 21,8 C 33,3 C 3,6 km/h
02.08.2017 15:00 32,9 C 48 % 1015,5 hPa 0,0 l/m 0,0 km/h W 20,4 C 32,9 C 0,0 km/h
02.08.2017 16:00 34,5 C 43 % 1014,8 hPa 0,0 l/m 0,0 km/h S-SW 20,1 C 34,5 C 0,0 km/h
02.08.2017 17:00 35,9 C 41 % 1014,3 hPa 0,0 l/m 0,0 km/h W 20,5 C 35,9 C 0,0 km/h
02.08.2017 18:00 33,9 C 44 % 1013,6 hPa 0,0 l/m 0,0 km/h O-NO 19,9 C 33,9 C 0,0 km/h
02.08.2017 19:00 30,4 C 57 % 1013,7 hPa 0,0 l/m 0,0 km/h O-SO 20,9 C 30,4 C 0,0 km/h
02.08.2017 20:00 25,0 C 70 % 1013,5 hPa 0,0 l/m 0,0 km/h NO 19,1 C 25,0 C 0,0 km/h
02.08.2017 21:00 22,9 C 76 % 1013,8 hPa 0,0 l/m 0,0 km/h NO 18,4 C 22,9 C 0,0 km/h
02.08.2017 22:00 21,9 C 80 % 1013,9 hPa 0,0 l/m 0,0 km/h SO 18,3 C 21,9 C 0,0 km/h
02.08.2017 23:00 21,3 C 81 % 1013,7 hPa 0,0 l/m 0,0 km/h O-NO 17,9 C 21,3 C 0,0 km/h
03.08.2017 00:00 20,9 C 81 % 1013,2 hPa 0,0 l/m 0,0 km/h O-NO 17,5 C 20,9 C 0,0 km/h
03.08.2017 01:00 20,8 C 82 % 1013,0 hPa 0,0 l/m 0,0 km/h O-SO 17,6 C 20,8 C 0,0 km/h
03.08.2017 02:00 20,5 C 82 % 1012,1 hPa 0,0 l/m 0,0 km/h O-SO 17,3 C 20,5 C 0,0 km/h
03.08.2017 03:00 20,5 C 82 % 1011,7 hPa 0,0 l/m 0,0 km/h O-NO 17,3 C 20,5 C 0,0 km/h
03.08.2017 04:00 20,4 C 82 % 1011,3 hPa 0,0 l/m 0,0 km/h O-SO 17,2 C 20,4 C 0,0 km/h
03.08.2017 05:00 20,3 C 82 % 1012,0 hPa 0,0 l/m 0,0 km/h O-SO 17,1 C 20,3 C 0,0 km/h
03.08.2017 06:00 20,6 C 81 % 1012,0 hPa 0,0 l/m 0,0 km/h O-NO 17,2 C 20,6 C 0,0 km/h
03.08.2017 07:00 21,9 C 81 % 1012,3 hPa 0,0 l/m 0,0 km/h SO 18,5 C 21,9 C 0,0 km/h
03.08.2017 08:00 22,6 C 82 % 1013,1 hPa 0,0 l/m 0,0 km/h N 19,4 C 22,6 C 0,0 km/h
03.08.2017 09:00 24,9 C 80 % 1013,0 hPa 0,0 l/m 0,0 km/h SO 21,2 C 24,9 C 0,0 km/h
03.08.2017 10:00 27,4 C 75 % 1013,0 hPa 0,0 l/m 0,0 km/h W-NW 22,6 C 27,4 C 0,0 km/h
03.08.2017 11:00 32,2 C 59 % 1012,8 hPa 0,0 l/m 0,0 km/h W-SW 23,1 C 32,2 C 0,0 km/h
03.08.2017 12:00 31,0 C 59 % 1012,4 hPa 0,0 l/m 3,9 km/h W-SW 22,0 C 31,0 C 2,2 km/h
03.08.2017 13:00 31,9 C 58 % 1012,0 hPa 0,0 l/m 9,7 km/h W-NW 22,6 C 31,8 C 5,4 km/h
03.08.2017 14:00 32,1 C 56 % 1011,8 hPa 0,0 l/m 10,4 km/h W 22,2 C 32,0 C 5,8 km/h
03.08.2017 15:00 31,9 C 55 % 1011,6 hPa 0,0 l/m 26,6 km/h S-SW 21,7 C 31,5 C 14,8 km/h
03.08.2017 16:00 32,4 C 53 % 1011,2 hPa 0,0 l/m 10,4 km/h N 21,6 C 32,3 C 5,8 km/h
03.08.2017 17:00 31,5 C 53 % 1011,2 hPa 0,0 l/m 0,0 km/h N 20,7 C 31,5 C 0,0 km/h
03.08.2017 18:00 29,4 C 59 % 1011,2 hPa 0,0 l/m 0,0 km/h O-SO 20,5 C 29,4 C 0,0 km/h
03.08.2017 19:00 27,4 C 70 % 1011,2 hPa 0,0 l/m 0,0 km/h NO 21,4 C 27,4 C 0,0 km/h
03.08.2017 20:00 25,9 C 75 % 1011,4 hPa 0,0 l/m 0,0 km/h NO 21,1 C 25,9 C 0,0 km/h
03.08.2017 21:00 24,0 C 80 % 1012,0 hPa 0,0 l/m 0,0 km/h NO 20,3 C 24,0 C 0,0 km/h
03.08.2017 22:00 22,7 C 81 % 1012,4 hPa 0,0 l/m 0,0 km/h NO 19,3 C 22,7 C 0,0 km/h
03.08.2017 23:00 22,3 C 81 % 1012,5 hPa 0,0 l/m 0,0 km/h NO 18,9 C 22,3 C 0,0 km/h
04.08.2017 00:00 21,2 C 82 % 1012,5 hPa 0,0 l/m 0,0 km/h NO 18,0 C 21,2 C 0,0 km/h
04.08.2017 01:00 20,3 C 82 % 1012,6 hPa 0,0 l/m 0,0 km/h NO 17,1 C 20,3 C 0,0 km/h
04.08.2017 02:00 19,9 C 82 % 1012,5 hPa 0,0 l/m 0,0 km/h O-NO 16,7 C 19,9 C 0,0 km/h
04.08.2017 03:00 19,3 C 82 % 1012,5 hPa 0,0 l/m 0,0 km/h O-NO 16,1 C 19,3 C 0,0 km/h
04.08.2017 04:00 19,8 C 82 % 1012,6 hPa 0,0 l/m 0,0 km/h NO 16,6 C 19,8 C 0,0 km/h
04.08.2017 05:00 20,1 C 82 % 1012,8 hPa 0,0 l/m 0,0 km/h W 16,9 C 20,1 C 0,0 km/h
04.08.2017 06:00 21,9 C 74 % 1012,8 hPa 0,0 l/m 0,0 km/h S-SW 17,0 C 21,9 C 0,0 km/h
04.08.2017 07:00 24,9 C 67 % 1013,0 hPa 0,0 l/m 2,6 km/h W-NW 18,3 C 24,9 C 1,4 km/h
04.08.2017 08:00 27,2 C 57 % 1013,5 hPa 0,0 l/m 21,4 km/h W-SW 17,9 C 25,4 C 11,9 km/h
04.08.2017 09:00 24,4 C 66 % 1013,4 hPa 0,0 l/m 11,7 km/h W-SW 17,6 C 23,2 C 6,5 km/h
04.08.2017 10:00 25,2 C 64 % 1013,6 hPa 0,0 l/m 0,0 km/h W-SW 17,9 C 25,2 C 0,0 km/h
04.08.2017 11:00 26,1 C 62 % 1013,6 hPa 0,0 l/m 15,6 km/h SW 18,2 C 24,6 C 8,6 km/h
04.08.2017 12:00 25,9 C 58 % 1013,6 hPa 0,0 l/m 21,4 km/h W-SW 17,0 C 23,7 C 11,9 km/h
04.08.2017 13:00 29,3 C 51 % 1013,5 hPa 0,0 l/m 9,7 km/h SW 18,1 C 28,9 C 5,4 km/h
04.08.2017 14:00 27,6 C 50 % 1013,2 hPa 0,0 l/m 11,0 km/h N 16,2 C 26,9 C 6,1 km/h
04.08.2017 15:00 26,4 C 54 % 1013,5 hPa 0,0 l/m 1,9 km/h S-SO 16,3 C 26,4 C 1,1 km/h
04.08.2017 16:00 24,2 C 58 % 1014,2 hPa 0,0 l/m 7,8 km/h O-SO 15,4 C 23,8 C 4,3 km/h
04.08.2017 17:00 21,8 C 66 % 1013,9 hPa 0,0 l/m 22,0 km/h SO 15,2 C 18,2 C 12,2 km/h
04.08.2017 18:00 23,8 C 59 % 1013,9 hPa 0,0 l/m 0,0 km/h O-SO 15,3 C 23,8 C 0,0 km/h
04.08.2017 19:00 22,8 C 61 % 1013,9 hPa 0,0 l/m 0,0 km/h O-SO 14,9 C 22,8 C 0,0 km/h
04.08.2017 20:00 21,5 C 67 % 1013,9 hPa 0,0 l/m 0,0 km/h NO 15,1 C 21,5 C 0,0 km/h
04.08.2017 21:00 18,8 C 72 % 1014,2 hPa 0,0 l/m 0,0 km/h NO 13,6 C 18,8 C 0,0 km/h
04.08.2017 22:00 17,1 C 76 % 1014,3 hPa 0,0 l/m 0,0 km/h NO 12,8 C 17,1 C 0,0 km/h
04.08.2017 23:00 16,6 C 79 % 1014,4 hPa 0,0 l/m 0,0 km/h NO 12,9 C 16,6 C 0,0 km/h
05.08.2017 00:00 16,4 C 81 % 1014,3 hPa 0,0 l/m 0,0 km/h NO 13,1 C 16,4 C 0,0 km/h
05.08.2017 01:00 15,6 C 82 % 1014,0 hPa 0,0 l/m 0,0 km/h O-SO 12,5 C 15,6 C 0,0 km/h
05.08.2017 02:00 15,4 C 82 % 1013,6 hPa 0,0 l/m 0,0 km/h N-NO 12,3 C 15,4 C 0,0 km/h
05.08.2017 03:00 15,3 C 83 % 1013,5 hPa 0,0 l/m 0,0 km/h O-SO 12,4 C 15,3 C 0,0 km/h
05.08.2017 04:00 14,9 C 83 % 1013,3 hPa 0,0 l/m 0,0 km/h SO 12,0 C 14,9 C 0,0 km/h
05.08.2017 05:00 14,9 C 83 % 1013,0 hPa 0,0 l/m 0,0 km/h SO 12,0 C 14,9 C 0,0 km/h
05.08.2017 06:00 14,5 C 83 % 1013,3 hPa 0,0 l/m 0,0 km/h O-SO 11,6 C 14,5 C 0,0 km/h
05.08.2017 07:00 19,8 C 82 % 1013,5 hPa 0,0 l/m 0,0 km/h O-SO 16,6 C 19,8 C 0,0 km/h
05.08.2017 08:00 21,9 C 70 % 1013,5 hPa 0,0 l/m 0,0 km/h NO 16,2 C 21,9 C 0,0 km/h
05.08.2017 09:00 23,1 C 68 % 1013,3 hPa 0,0 l/m 0,0 km/h SW 16,9 C 23,1 C 0,0 km/h
05.08.2017 10:00 27,4 C 56 % 1013,2 hPa 0,0 l/m 20,7 km/h S 17,8 C 25,7 C 11,5 km/h
05.08.2017 11:00 26,3 C 62 % 1013,2 hPa 0,0 l/m 0,0 km/h S-SW 18,4 C 26,3 C 0,0 km/h
05.08.2017 12:00 29,4 C 57 % 1013,1 hPa 0,0 l/m 32,4 km/h W-SW 20,0 C 27,9 C 18,0 km/h
05.08.2017 13:00 27,9 C 59 % 1013,0 hPa 0,0 l/m 3,2 km/h W-SW 19,1 C 27,9 C 1,8 km/h
05.08.2017 14:00 26,9 C 62 % 1013,5 hPa 0,0 l/m 33,0 km/h W-SW 19,0 C 24,3 C 18,4 km/h
05.08.2017 15:00 26,9 C 62 % 1013,2 hPa 0,0 l/m 1,9 km/h W 19,0 C 26,9 C 1,1 km/h
05.08.2017 16:00 29,8 C 53 % 1013,3 hPa 0,0 l/m 0,0 km/h N-NO 19,2 C 29,8 C 0,0 km/h
05.08.2017 17:00 30,2 C 51 % 1013,2 hPa 0,0 l/m 19,4 km/h N 18,9 C 29,4 C 10,8 km/h
05.08.2017 18:00 24,9 C 62 % 1013,8 hPa 0,0 l/m 7,8 km/h NW 17,1 C 24,5 C 4,3 km/h
05.08.2017 19:00 23,6 C 62 % 1014,8 hPa 0,0 l/m 0,0 km/h N-NO 15,9 C 23,6 C 0,0 km/h
05.08.2017 20:00 21,4 C 62 % 1016,0 hPa 0,0 l/m 0,0 km/h N 13,8 C 21,4 C 0,0 km/h
05.08.2017 21:00 20,4 C 65 % 1016,7 hPa 0,0 l/m 0,0 km/h N-NO 13,6 C 20,4 C 0,0 km/h
05.08.2017 22:00 18,8 C 64 % 1017,1 hPa 0,0 l/m 0,0 km/h N-NO 11,8 C 18,8 C 0,0 km/h
05.08.2017 23:00 17,6 C 71 % 1017,5 hPa 0,0 l/m 0,0 km/h N-NO 12,3 C 17,6 C 0,0 km/h
06.08.2017 00:00 17,2 C 72 % 1017,8 hPa 0,0 l/m 0,0 km/h N-NO 12,1 C 17,2 C 0,0 km/h
06.08.2017 01:00 16,8 C 76 % 1017,7 hPa 0,0 l/m 0,0 km/h N-NO 12,5 C 16,8 C 0,0 km/h
06.08.2017 02:00 16,3 C 78 % 1017,9 hPa 0,0 l/m 0,0 km/h N-NO 12,5 C 16,3 C 0,0 km/h
06.08.2017 03:00 16,1 C 79 % 1017,8 hPa 0,0 l/m 0,0 km/h N-NO 12,5 C 16,1 C 0,0 km/h
06.08.2017 04:00 15,6 C 80 % 1018,2 hPa 0,0 l/m 0,0 km/h N-NO 12,2 C 15,6 C 0,0 km/h
06.08.2017 05:00 15,6 C 81 % 1018,5 hPa 0,0 l/m 0,0 km/h N-NO 12,3 C 15,6 C 0,0 km/h
06.08.2017 06:00 15,4 C 82 % 1018,7 hPa 0,0 l/m 0,0 km/h N-NO 12,3 C 15,4 C 0,0 km/h
06.08.2017 07:00 16,5 C 82 % 1019,3 hPa 0,0 l/m 0,0 km/h N-NO 13,4 C 16,5 C 0,0 km/h
06.08.2017 08:00 19,1 C 77 % 1019,4 hPa 0,0 l/m 0,0 km/h W-NW 15,0 C 19,1 C 0,0 km/h
06.08.2017 09:00 20,2 C 68 % 1019,7 hPa 0,0 l/m 0,0 km/h SO 14,1 C 20,2 C 0,0 km/h
06.08.2017 10:00 25,2 C 59 % 1019,7 hPa 0,0 l/m 0,0 km/h N 16,6 C 25,2 C 0,0 km/h
06.08.2017 11:00 24,1 C 53 % 1019,5 hPa 0,0 l/m 0,0 km/h N 13,9 C 24,1 C 0,0 km/h
06.08.2017 12:00 26,9 C 42 % 1019,4 hPa 0,0 l/m 1,9 km/h N-NO 12,9 C 26,9 C 1,1 km/h
06.08.2017 13:00 26,6 C 41 % 1019,1 hPa 0,0 l/m 21,4 km/h N 12,2 C 24,6 C 11,9 km/h
06.08.2017 14:00 28,1 C 35 % 1018,6 hPa 0,0 l/m 0,0 km/h N 11,2 C 28,1 C 0,0 km/h
06.08.2017 15:00 28,2 C 37 % 1018,6 hPa 0,0 l/m 0,0 km/h NW 12,1 C 28,2 C 0,0 km/h
06.08.2017 16:00 29,4 C 34 % 1018,9 hPa 0,0 l/m 0,0 km/h N-NO 11,9 C 29,4 C 0,0 km/h
06.08.2017 17:00 32,4 C 28 % 1018,8 hPa 0,0 l/m 5,8 km/h N 11,5 C 32,4 C 3,2 km/h
06.08.2017 18:00 31,3 C 29 % 1018,7 hPa 0,0 l/m 0,0 km/h N-NO 11,1 C 31,3 C 0,0 km/h
06.08.2017 19:00 24,7 C 39 % 1018,7 hPa 0,0 l/m 0,0 km/h N 9,8 C 24,7 C 0,0 km/h
06.08.2017 20:00 19,8 C 50 % 1019,0 hPa 0,0 l/m 0,0 km/h N-NO 9,1 C 19,8 C 0,0 km/h
06.08.2017 21:00 16,3 C 62 % 1019,2 hPa 0,0 l/m 0,0 km/h N-NO 9,0 C 16,3 C 0,0 km/h
06.08.2017 22:00 14,7 C 67 % 1019,2 hPa 0,0 l/m 0,0 km/h O 8,6 C 14,7 C 0,0 km/h
06.08.2017 23:00 13,9 C 72 % 1018,8 hPa 0,0 l/m 0,0 km/h NO 8,9 C 13,9 C 0,0 km/h
Min-Datum _ 06.08.17 06.08.17 31.07.17 - 31.07.17 - 06.08.17 06.08.17 31.07.17
_ Min-Zeit 23:54 17:54 19:55 - 00:55 - 22:54 23:54 00:55
Minimum _ 13,9 C 28 % 1009,6 hPa - 0,0 km/h - 8,6 C 13,9 C 0,0 km/h
Max-Datum _ 31.07.17 02.08.17 06.08.17 01.08.17 05.08.17 - 01.08.17 31.07.17 05.08.17
_ Max-Zeit 17:55 09:55 09:54 20:55 14:54 - 14:55 17:55 14:54
Maximum _ 35,9 C 83 % 1019,7 hPa 3,1 l/m 33,0 km/h
W-SW
- 23,3 C 35,9 C 18,4 km/h
W-SW
Durchschnitt _ 23,6 C 67 % 1014,0 hPa #10,4 l/m 2,1 km/h N-NO 16,7 C 23,5 C 1,2 km/h
www.sexauwetter.de